Time;durP1;ratioP1;P1;durP2;ratioP2;P2;SDS_P1;SDS_P2;PMS_P1;PMS_P2;Temp;Humidity;BMP_temperature;BMP_pressure;BME280_temperature;BME280_humidity;BME280_pressure;Samples;Min_cycle;Max_cycle;Signal;HPM_P1;HPM_P2
2022/04/04 00:01:28;;;;;;;16.60;9.73;;;;;;;21.00;51.84;98690.92;1746162;82;25685;-92
2022/04/04 00:03:54;;;;;;;15.15;9.40;;;;;;;20.99;51.85;98687.13;1746217;82;25522;-91
2022/04/04 00:06:20;;;;;;;14.95;9.60;;;;;;;20.98;51.86;98686.94;1746359;82;25680;-91
2022/04/04 00:08:46;;;;;;;16.02;9.88;;;;;;;20.98;51.86;98686.94;1746306;82;25643;-91
2022/04/04 00:11:12;;;;;;;16.62;9.33;;;;;;;20.94;51.86;98684.11;1746253;82;28325;-92
2022/04/04 00:13:39;;;;;;;16.32;9.90;;;;;;;20.94;51.89;98675.75;1746116;82;25438;-92
2022/04/04 00:16:07;;;;;;;16.97;9.78;;;;;;;20.92;51.92;98679.50;1746346;82;25700;-92
2022/04/04 00:18:34;;;;;;;15.35;9.60;;;;;;;20.91;51.91;98677.91;1745946;82;26718;-92
2022/04/04 00:21:01;;;;;;;14.05;9.20;;;;;;;20.89;51.91;98677.45;1746003;82;25758;-92
2022/04/04 00:23:27;;;;;;;15.53;9.48;;;;;;;20.88;51.94;98675.86;1746160;82;27396;-91
2022/04/04 00:25:53;;;;;;;16.20;9.50;;;;;;;20.86;51.94;98672.06;1746242;82;25898;-91
2022/04/04 00:28:19;;;;;;;15.93;9.08;;;;;;;20.83;51.94;98670.05;1748412;80;25780;-95
2022/04/04 00:30:45;;;;;;;14.85;9.18;;;;;;;20.81;51.94;98669.03;1732357;82;25677;-93
2022/04/04 00:33:11;;;;;;;15.68;9.10;;;;;;;20.79;51.96;98667.83;1777680;80;25434;-93
2022/04/04 00:35:37;;;;;;;14.83;9.23;;;;;;;20.79;51.98;98663.65;1766638;81;27380;-93
2022/04/04 00:38:08;;;;;;;13.32;8.98;;;;;;;20.77;51.98;98664.61;1732307;82;25640;-93
2022/04/04 00:40:34;;;;;;;16.37;9.33;;;;;;;20.76;51.97;98676.36;1777761;80;25648;-93
2022/04/04 00:43:00;;;;;;;16.32;9.00;;;;;;;20.74;51.99;98673.73;1766788;81;25851;-93
2022/04/04 00:45:26;;;;;;;14.80;8.85;;;;;;;20.73;52.00;98667.37;1766853;81;25739;-94
2022/04/04 00:47:52;;;;;;;16.07;9.03;;;;;;;20.71;52.00;98666.95;1766723;81;27378;-93
2022/04/04 00:50:19;;;;;;;14.07;9.08;;;;;;;20.68;52.01;98665.74;1735136;82;25693;-94
2022/04/04 00:52:45;;;;;;;15.50;8.83;;;;;;;20.66;52.04;98665.31;1765829;81;25424;-94
2022/04/04 00:55:11;;;;;;;14.60;9.28;;;;;;;20.66;52.01;98665.89;1746796;82;25739;-93
2022/04/04 00:57:38;;;;;;;14.87;8.43;;;;;;;20.65;52.02;98660.94;1747037;82;25471;-93
2022/04/04 01:00:09;;;;;;;14.80;8.88;;;;;;;20.63;52.03;98663.88;1746776;82;28296;-92
2022/04/04 01:02:36;;;;;;;14.47;8.80;;;;;;;20.61;52.04;98662.86;1746729;82;25745;-91
2022/04/04 01:05:04;;;;;;;13.85;8.90;;;;;;;20.60;52.04;98659.07;1746781;82;25621;-91
2022/04/04 01:07:31;;;;;;;15.23;8.80;;;;;;;20.57;52.05;98662.03;1746607;82;25741;-92
2022/04/04 01:09:57;;;;;;;13.98;8.63;;;;;;;20.55;52.05;98652.67;1746851;82;25792;-92
2022/04/04 01:12:23;;;;;;;14.20;8.20;;;;;;;20.55;52.06;98656.03;1746921;82;28432;-91
2022/04/04 01:14:49;;;;;;;13.30;8.33;;;;;;;20.52;52.06;98654.05;1746711;82;25454;-91
2022/04/04 01:17:18;;;;;;;13.90;8.20;;;;;;;20.50;52.06;98650.25;1746828;82;25606;-91
2022/04/04 01:19:45;;;;;;;15.00;8.38;;;;;;;20.49;52.07;98652.80;1746738;82;25624;-91
2022/04/04 01:22:14;;;;;;;14.10;8.85;;;;;;;20.47;52.09;98649.63;1746786;82;25419;-91
2022/04/04 01:24:41;;;;;;;13.30;7.92;;;;;;;20.44;52.09;98655.34;1746745;82;28207;-91
2022/04/04 01:27:11;;;;;;;14.20;8.45;;;;;;;20.43;52.12;98652.94;1746705;82;25887;-91
2022/04/04 01:29:39;;;;;;;11.70;7.87;;;;;;;20.40;52.13;98648.94;1763810;81;25642;-91
2022/04/04 01:32:08;;;;;;;12.33;7.75;;;;;;;20.38;52.14;98650.52;1765147;81;25702;-91
2022/04/04 01:34:35;;;;;;;13.03;8.50;;;;;;;20.36;52.17;98645.91;1783181;80;25762;-91
2022/04/04 01:37:03;;;;;;;14.60;8.33;;;;;;;20.33;52.18;98648.05;1765235;81;27366;-92
2022/04/04 01:39:29;;;;;;;15.35;8.98;;;;;;;20.30;52.19;98639.89;1764779;81;25716;-91
2022/04/04 01:41:55;;;;;;;14.20;8.48;;;;;;;20.28;52.21;98641.66;1765243;81;25608;-91
2022/04/04 01:44:21;;;;;;;13.72;8.30;;;;;;;20.26;52.21;98642.62;1765198;81;25608;-91
2022/04/04 01:46:47;;;;;;;13.30;8.50;;;;;;;20.24;52.23;98637.23;1765201;81;25657;-91
2022/04/04 01:49:13;;;;;;;13.95;7.95;;;;;;;20.21;52.28;98633.81;1765240;81;28041;-91
2022/04/04 01:51:41;;;;;;;12.47;8.08;;;;;;;20.19;52.29;98630.02;1765060;81;25682;-92
2022/04/04 01:54:07;;;;;;;12.80;7.55;;;;;;;20.17;52.30;98625.42;1765113;81;25444;-92
2022/04/04 01:56:34;;;;;;;13.03;7.65;;;;;;;20.15;52.33;98623.63;1765109;81;25739;-91
2022/04/04 01:59:00;;;;;;;12.98;8.38;;;;;;;20.13;52.34;98625.98;1765046;81;25709;-92
2022/04/04 02:01:27;;;;;;;11.80;7.58;;;;;;;20.10;52.36;98626.16;1765158;81;27349;-92
2022/04/04 02:03:56;;;;;;;11.80;7.65;;;;;;;20.08;52.38;98624.91;1764951;81;25728;-92
2022/04/04 02:06:23;;;;;;;13.00;7.90;;;;;;;20.06;52.39;98623.31;1765315;81;25699;-92
2022/04/04 02:08:51;;;;;;;13.58;7.95;;;;;;;20.05;52.44;98623.70;1765192;81;25783;-93
2022/04/04 02:11:19;;;;;;;12.93;7.97;;;;;;;20.02;52.43;98620.28;1765265;81;25424;-94
2022/04/04 02:13:46;;;;;;;10.68;7.50;;;;;;;20.00;52.45;98615.07;1765109;81;27437;-93
2022/04/04 02:16:13;;;;;;;13.13;7.58;;;;;;;19.98;52.49;98613.86;1765214;81;25829;-92
2022/04/04 02:18:40;;;;;;;14.05;7.67;;;;;;;19.97;52.52;98611.66;1765416;81;25648;-91
2022/04/04 02:21:07;;;;;;;12.53;7.35;;;;;;;19.96;52.51;98610.64;1765154;81;25886;-94
2022/04/04 02:23:34;;;;;;;11.75;7.22;;;;;;;19.95;52.54;98605.69;1764827;81;25760;-94
2022/04/04 02:26:01;;;;;;;11.65;7.53;;;;;;;19.92;52.56;98598.88;1765097;81;28231;-95
2022/04/04 02:28:28;;;;;;;12.98;7.35;;;;;;;19.89;52.61;98598.25;1757248;81;25443;-94
2022/04/04 02:30:56;;;;;;;14.45;7.78;;;;;;;19.88;52.61;98592.48;1737893;82;25636;-93
2022/04/04 02:33:23;;;;;;;11.83;7.12;;;;;;;19.87;52.62;98597.03;1762361;81;25868;-94
2022/04/04 02:35:51;;;;;;;11.83;7.20;;;;;;;19.85;52.67;98600.77;1723635;82;25617;-94
2022/04/04 02:38:21;;;;;;;12.70;7.20;;;;;;;19.83;52.69;98597.59;1770036;81;27431;-95
2022/04/04 02:40:47;;;;;;;13.45;8.13;;;;;;;19.81;52.71;98593.80;1770069;80;25680;-94
2022/04/04 02:43:13;;;;;;;13.22;7.37;;;;;;;19.79;52.73;98594.17;1770123;80;25656;-93
2022/04/04 02:45:39;;;;;;;11.63;7.72;;;;;;;19.78;52.76;98588.98;1770005;81;26534;-94
2022/04/04 02:48:07;;;;;;;12.47;7.70;;;;;;;19.76;52.79;98581.03;1770060;80;25701;-94
2022/04/04 02:50:34;;;;;;;12.03;7.17;;;;;;;19.75;52.79;98589.13;1769960;81;27434;-93
2022/04/04 02:53:01;;;;;;;11.48;7.67;;;;;;;19.72;52.82;98578.80;1769607;80;25421;-94
2022/04/04 02:58:12;;;;;;;11.88;7.33;;;;;;;19.71;52.83;98585.52;1769722;81;25654;-94
2022/04/04 03:00:37;;;;;;;12.25;7.33;;;;;;;19.68;52.90;98584.88;1770176;80;25554;-94
2022/04/04 03:03:03;;;;;;;10.10;7.08;;;;;;;19.67;52.91;98586.88;1770099;81;27388;-93
2022/04/04 03:05:30;;;;;;;11.12;7.15;;;;;;;19.64;52.91;98590.41;1769931;80;25626;-93
2022/04/04 03:07:56;;;;;;;11.28;6.92;;;;;;;19.64;52.92;98588.21;1769803;80;25460;-93
2022/04/04 03:10:22;;;;;;;10.13;6.75;;;;;;;19.63;52.95;98587.40;1769873;81;26546;-94
2022/04/04 03:12:51;;;;;;;10.88;7.08;;;;;;;19.61;52.95;98592.55;1769976;81;25417;-94
2022/04/04 03:15:23;;;;;;;11.97;7.25;;;;;;;19.60;52.99;98585.38;1770150;81;27631;-95
2022/04/04 03:17:54;;;;;;;11.68;7.35;;;;;;;19.59;52.98;98582.39;1770056;80;25750;-94
2022/04/04 03:20:22;;;;;;;;;;;;;;;19.59;52.99;98582.97;1772669;80;25654;-94
2022/04/04 03:22:51;;;;;;;9.70;5.95;;;;;;;19.57;52.99;98580.56;1769986;80;25842;-92
2022/04/04 03:25:18;;;;;;;11.53;6.78;;;;;;;19.55;53.01;98584.33;1769889;80;25638;-93
2022/04/04 03:27:46;;;;;;;11.53;7.20;;;;;;;19.55;53.02;98585.72;1769962;81;27472;-93
2022/04/04 03:30:18;;;;;;;10.63;7.05;;;;;;;19.52;53.05;98585.86;1769631;80;25885;-94
2022/04/04 03:32:47;;;;;;;9.58;6.47;;;;;;;19.51;53.04;98579.30;1769041;80;25468;-92
2022/04/04 03:35:14;;;;;;;10.70;6.75;;;;;;;19.50;53.08;98577.70;1769217;81;25762;-94
2022/04/04 03:37:44;;;;;;;11.55;6.90;;;;;;;19.50;53.07;98583.26;1769726;80;25643;-94
2022/04/04 03:40:16;;;;;;;11.78;6.72;;;;;;;19.49;53.06;98584.45;1770055;80;27465;-93
2022/04/04 03:42:42;;;;;;;11.45;6.80;;;;;;;19.49;53.06;98578.89;1768108;81;25426;-91
2022/04/04 03:45:14;;;;;;;10.75;6.72;;;;;;;19.47;53.08;98588.98;1769790;80;25500;-92
2022/04/04 03:47:42;;;;;;;9.88;6.05;;;;;;;19.46;53.07;98587.97;1769672;81;25726;-91
2022/04/04 03:50:12;;;;;;;10.80;6.47;;;;;;;19.45;53.08;98591.94;1770128;80;25618;-92
2022/04/04 03:52:43;;;;;;;9.80;6.17;;;;;;;19.43;52.89;98590.31;1770135;81;27424;-93
2022/04/04 03:55:11;;;;;;;;;;;;;;;19.43;52.89;98590.31;1772504;80;25610;-91
2022/04/04 03:57:38;;;;;;;9.90;6.08;;;;;;;19.42;53.10;98592.89;1769724;80;25659;-92
2022/04/04 04:00:06;;;;;;;9.75;6.65;;;;;;;19.40;53.10;98589.67;1770135;80;25853;-92
2022/04/04 04:02:34;;;;;;;9.50;6.17;;;;;;;19.40;53.13;98587.50;1770111;81;25456;-92
2022/04/04 04:05:01;;;;;;;10.98;6.83;;;;;;;19.39;53.12;98585.88;1769649;81;28216;-91
2022/04/04 04:07:27;;;;;;;9.70;6.37;;;;;;;19.38;53.11;98583.72;1769796;80;25673;-93
2022/04/04 04:09:54;;;;;;;10.32;6.33;;;;;;;19.37;53.12;98586.26;1770049;81;25707;-92
2022/04/04 04:12:20;;;;;;;8.88;6.08;;;;;;;19.37;53.00;98577.92;1794816;79;25753;-94
2022/04/04 04:14:48;;;;;;;8.20;5.55;;;;;;;19.35;53.07;98578.91;1789540;79;25712;-90
2022/04/04 04:17:15;;;;;;;11.55;5.75;;;;;;;19.37;53.00;98578.53;1745406;82;27365;-91
2022/04/04 04:22:27;;;;;;;8.90;5.67;;;;;;;19.34;53.01;98577.89;1744963;82;25697;-90
2022/04/04 04:24:53;;;;;;;9.03;5.80;;;;;;;19.33;52.96;98572.91;1745257;82;25770;-89
2022/04/04 04:27:19;;;;;;;9.58;6.08;;;;;;;19.32;53.00;98575.48;1745195;82;25760;-92
2022/04/04 04:29:45;;;;;;;8.10;5.25;;;;;;;19.33;52.86;98572.10;1737169;82;28260;-90
2022/04/04 04:32:13;;;;;;;10.05;5.53;;;;;;;19.30;52.91;98579.22;1733691;82;25879;-91
2022/04/04 04:34:40;;;;;;;10.20;5.62;;;;;;;19.29;52.91;98575.63;1732961;82;25740;-91
2022/04/04 04:37:06;;;;;;;9.88;6.03;;;;;;;19.29;52.91;98578.41;1741201;81;26094;-91
2022/04/04 04:39:33;;;;;;;8.90;5.78;;;;;;;19.32;52.86;98579.66;1753909;81;25417;-93
2022/04/04 04:41:58;;;;;;;8.55;5.40;;;;;;;19.34;52.84;98581.45;1754068;81;27528;-91
2022/04/04 04:44:24;;;;;;;9.63;5.42;;;;;;;19.34;52.87;98582.06;1753837;81;25903;-91
2022/04/04 04:46:52;;;;;;;8.00;5.80;;;;;;;19.33;52.88;98584.02;1753968;81;25482;-90
2022/04/04 04:49:19;;;;;;;10.78;5.67;;;;;;;19.32;52.86;98578.27;1753595;81;25908;-89
2022/04/04 04:51:45;;;;;;;9.43;5.58;;;;;;;19.33;52.87;98585.41;1754072;81;25631;-91
2022/04/04 04:54:11;;;;;;;8.58;5.42;;;;;;;19.33;52.90;98586.80;1753907;81;27439;-91
2022/04/04 04:56:38;;;;;;;8.35;5.67;;;;;;;19.31;52.94;98583.01;1753606;81;25702;-91
2022/04/04 04:59:04;;;;;;;8.65;5.25;;;;;;;19.32;52.93;98582.44;1754055;81;25642;-90
2022/04/04 05:01:30;;;;;;;12.43;5.45;;;;;;;19.34;52.87;98586.23;1753242;81;25744;-90
2022/04/04 05:03:56;;;;;;;10.90;5.17;;;;;;;19.34;52.86;98581.45;1754205;81;25712;-91
2022/04/04 05:06:22;;;;;;;11.20;5.25;;;;;;;19.36;52.84;98578.30;1754152;81;27396;-93
2022/04/04 05:08:48;;;;;;;9.60;5.50;;;;;;;19.35;52.88;98580.30;1754036;81;25763;-90
2022/04/04 05:11:14;;;;;;;7.92;5.03;;;;;;;19.35;52.90;98576.13;1754410;81;25637;-91
2022/04/04 05:13:42;;;;;;;8.78;5.22;;;;;;;19.35;52.92;98582.27;1754002;81;25807;-92
2022/04/04 05:16:10;;;;;;;8.43;5.40;;;;;;;19.35;52.92;98580.30;1753871;81;25433;-92
2022/04/04 05:18:37;;;;;;;8.38;5.45;;;;;;;19.37;52.92;98577.14;1753857;81;26210;-92
2022/04/04 05:21:04;;;;;;;9.28;5.28;;;;;;;19.35;52.98;98578.91;1753721;81;25605;-90
2022/04/04 05:23:31;;;;;;;9.63;5.28;;;;;;;19.36;52.93;98577.72;1753800;81;25499;-92
2022/04/04 05:25:57;;;;;;;10.90;5.65;;;;;;;19.40;52.96;98579.17;1754093;81;25770;-92
2022/04/04 05:28:23;;;;;;;8.93;5.58;;;;;;;19.43;52.93;98578.42;1754220;81;25665;-92
2022/04/04 05:30:49;;;;;;;7.55;5.08;;;;;;;19.43;52.94;98579.81;1753729;81;27535;-91
2022/04/04 05:33:15;;;;;;;10.23;5.20;;;;;;;19.47;52.90;98582.62;1754097;81;25421;-90
2022/04/04 05:35:42;;;;;;;9.40;5.53;;;;;;;19.47;52.93;98581.23;1750646;81;25659;-91
2022/04/04 05:38:09;;;;;;;7.35;4.75;;;;;;;19.45;52.98;98578.83;1754331;81;25886;-96
2022/04/04 05:40:36;;;;;;;7.83;4.92;;;;;;;19.45;52.95;98576.05;1754519;81;25392;-93
2022/04/04 05:43:03;;;;;;;6.95;4.75;;;;;;;19.47;52.79;98568.73;1754227;81;27340;-93
2022/04/04 05:45:30;;;;;;;10.63;4.95;;;;;;;19.48;52.62;98573.09;1753221;81;25911;-93
2022/04/04 05:47:56;;;;;;;7.05;4.22;;;;;;;19.49;52.65;98574.11;1753886;81;25842;-92
2022/04/04 05:50:23;;;;;;;8.15;5.03;;;;;;;19.52;52.56;98571.19;1754064;81;25727;-94
2022/04/04 05:52:49;;;;;;;7.55;4.60;;;;;;;19.54;52.47;98575.18;1754122;81;25621;-93
2022/04/04 05:55:17;;;;;;;7.20;4.65;;;;;;;19.54;52.41;98569.63;1754057;81;27377;-92
2022/04/04 05:57:45;;;;;;;7.17;4.92;;;;;;;19.56;52.34;98569.25;1753761;81;25689;-92
2022/04/04 06:00:14;;;;;;;8.28;4.55;;;;;;;19.55;52.33;98571.83;1753745;81;25649;-91
2022/04/04 06:02:44;;;;;;;6.55;4.30;;;;;;;19.55;52.23;98578.16;1754139;81;25732;-91
2022/04/04 06:05:12;;;;;;;7.10;4.67;;;;;;;19.56;52.38;98568.67;1754486;81;25433;-89
2022/04/04 06:07:40;;;;;;;8.63;4.90;;;;;;;19.56;52.38;98568.67;1754082;81;27380;-92
2022/04/04 06:10:09;;;;;;;6.42;4.25;;;;;;;19.58;52.17;98570.27;1754088;81;25663;-91
2022/04/04 06:12:40;;;;;;;8.10;4.40;;;;;;;19.58;52.07;98568.29;1754101;81;25476;-89
2022/04/04 06:15:08;;;;;;;5.75;4.15;;;;;;;19.58;52.07;98573.04;1754068;81;25719;-92
2022/04/04 06:17:34;;;;;;;7.70;4.50;;;;;;;19.58;51.85;98579.41;1754184;81;25416;-91
2022/04/04 06:20:00;;;;;;;8.38;4.80;;;;;;;19.57;51.64;98579.17;1754119;81;28233;-90
2022/04/04 06:22:27;;;;;;;7.05;4.75;;;;;;;19.55;51.84;98576.77;1754007;81;25691;-90
2022/04/04 06:24:54;;;;;;;6.75;4.30;;;;;;;19.53;51.49;98575.56;1754063;81;25439;-90
2022/04/04 06:27:20;;;;;;;7.00;4.25;;;;;;;19.54;51.29;98571.59;1754157;81;25722;-90
2022/04/04 06:29:47;;;;;;;8.53;4.75;;;;;;;19.54;51.37;98568.81;1756958;81;25420;-90
2022/04/04 06:32:14;;;;;;;6.95;4.60;;;;;;;19.54;51.34;98569.63;1762488;81;28340;-90
2022/04/04 06:34:40;;;;;;;5.90;4.37;;;;;;;19.54;51.34;98568.23;1762319;81;25499;-90
2022/04/04 06:37:09;;;;;;;7.75;4.67;;;;;;;19.56;51.64;98569.25;1762892;81;25476;-91
2022/04/04 06:39:35;;;;;;;7.15;4.50;;;;;;;19.56;51.58;98577.01;1758960;81;25633;-90
2022/04/04 06:42:02;;;;;;;7.75;4.55;;;;;;;19.56;51.61;98580.36;1762817;81;25736;-91
2022/04/04 06:44:29;;;;;;;9.65;4.40;;;;;;;19.55;51.64;98578.16;1762358;81;27570;-90
2022/04/04 06:46:56;;;;;;;9.18;4.60;;;;;;;19.58;51.62;98577.20;1762653;81;25817;-90
2022/04/04 06:49:23;;;;;;;6.97;4.20;;;;;;;19.59;51.56;98575.44;1762417;81;25677;-90
2022/04/04 06:51:51;;;;;;;8.98;4.90;;;;;;;19.62;51.71;98583.03;1762727;81;25742;-90
2022/04/04 06:54:18;;;;;;;7.30;4.33;;;;;;;19.63;51.64;98577.67;1762442;81;25632;-90
2022/04/04 06:56:49;;;;;;;6.00;4.40;;;;;;;19.65;51.64;98586.45;1762522;81;27593;-89
2022/04/04 06:59:18;;;;;;;;;;;;;;;19.66;51.61;98589.42;1764953;81;25883;-90
2022/04/04 07:01:44;;;;;;;9.90;4.28;;;;;;;19.66;51.53;98583.87;1762771;81;25708;-89
2022/04/04 07:04:11;;;;;;;8.78;4.55;;;;;;;19.69;51.54;98586.50;1762737;81;25685;-90
2022/04/04 07:06:38;;;;;;;5.85;3.95;;;;;;;19.69;51.52;98587.89;1762902;81;25646;-89
2022/04/04 07:09:05;;;;;;;7.03;4.37;;;;;;;19.71;51.54;98577.78;1762621;81;27407;-90
2022/04/04 07:11:33;;;;;;;6.20;3.85;;;;;;;19.71;51.45;98578.56;1762722;81;25480;-90
2022/04/04 07:14:00;;;;;;;7.72;4.33;;;;;;;19.73;51.55;98579.00;1762100;80;25637;-89
2022/04/04 07:16:26;;;;;;;8.80;4.12;;;;;;;19.73;51.35;98577.61;1762459;81;25834;-90
2022/04/04 07:18:53;;;;;;;5.42;4.20;;;;;;;19.74;51.21;98580.59;1762853;81;25597;-90
2022/04/04 07:21:20;;;;;;;5.62;3.95;;;;;;;19.74;51.14;98586.16;1762832;81;27566;-90
2022/04/04 07:23:48;;;;;;;6.00;3.90;;;;;;;19.76;51.18;98585.77;1762194;81;25880;-90
2022/04/04 07:26:19;;;;;;;6.92;4.20;;;;;;;19.76;51.13;98582.99;1762302;81;25642;-90
2022/04/04 07:28:43;;;;;;;7.28;4.00;;;;;;;19.76;51.24;98587.16;1761788;81;25648;-90
2022/04/04 07:31:10;;;;;;;8.20;3.95;;;;;;;19.76;51.11;98583.80;1757787;81;25634;-90
2022/04/04 07:33:36;;;;;;;9.28;4.17;;;;;;;19.75;51.13;98579.41;1756782;81;28110;-89
2022/04/04 07:36:04;;;;;;;7.17;3.77;;;;;;;19.75;51.10;98573.06;1755658;81;25495;-90
2022/04/04 07:38:30;;;;;;;6.28;3.98;;;;;;;19.74;51.01;98575.61;1754860;81;25736;-93
2022/04/04 07:40:57;;;;;;;5.65;3.75;;;;;;;19.74;50.96;98572.83;1756671;81;26296;-93
2022/04/04 07:43:23;;;;;;;5.58;3.87;;;;;;;19.75;50.87;98577.23;1757053;81;25695;-90
2022/04/04 07:45:50;;;;;;;5.67;4.03;;;;;;;19.75;50.80;98580.80;1756898;81;27468;-91
2022/04/04 07:48:16;;;;;;;6.75;4.30;;;;;;;19.76;50.74;98576.05;1756691;81;25499;-90
2022/04/04 07:50:45;;;;;;;5.15;3.72;;;;;;;19.77;50.63;98569.30;1756819;81;25646;-90
2022/04/04 07:53:12;;;;;;;7.08;3.90;;;;;;;19.76;50.61;98568.52;1756379;80;25631;-90
2022/04/04 07:55:40;;;;;;;5.97;3.83;;;;;;;19.78;50.53;98566.14;1756393;81;25774;-91
2022/04/04 07:58:07;;;;;;;6.22;4.20;;;;;;;19.80;50.40;98562.40;1756424;81;28428;-91
2022/04/04 08:00:34;;;;;;;7.10;4.20;;;;;;;19.83;50.32;98567.00;1756440;81;25738;-90
2022/04/04 08:03:00;;;;;;;6.45;4.47;;;;;;;19.84;50.31;98563.03;1756867;81;25687;-91
2022/04/04 08:05:27;;;;;;;8.03;4.55;;;;;;;19.85;50.27;98557.67;1724710;81;26315;-91
2022/04/04 08:07:53;;;;;;;9.15;5.35;;;;;;;19.87;50.12;98559.49;1756911;81;25697;-91
2022/04/04 08:10:21;;;;;;;8.10;5.35;;;;;;;19.89;49.97;98562.70;1756650;81;27421;-90
2022/04/04 08:12:52;;;;;;;7.65;5.08;;;;;;;19.89;50.00;98555.15;1756361;81;25944;-91
2022/04/04 08:15:18;;;;;;;8.60;4.95;;;;;;;19.90;49.89;98551.78;1756774;81;25786;-90
2022/04/04 08:17:45;;;;;;;7.92;5.08;;;;;;;19.90;49.92;98553.98;1756769;81;26369;-93
2022/04/04 08:20:13;;;;;;;7.75;5.53;;;;;;;19.92;49.94;98553.61;1756731;81;25684;-93
2022/04/04 08:22:45;;;;;;;8.70;5.55;;;;;;;19.92;49.91;98552.22;1756617;81;28062;-92
2022/04/04 08:25:14;;;;;;;8.58;6.00;;;;;;;19.94;49.88;98547.05;1756722;81;25676;-93
2022/04/04 08:27:44;;;;;;;8.60;5.95;;;;;;;19.98;49.80;98553.48;1760316;80;25874;-91
2022/04/04 08:30:14;;;;;;;9.13;5.90;;;;;;;20.00;49.66;98545.53;1764774;80;25792;-91
2022/04/04 08:32:41;;;;;;;;;;;;;;;20.04;49.65;98545.01;1748958;80;25938;-91
2022/04/04 08:35:11;;;;;;;10.03;5.92;;;;;;;20.07;49.57;98543.47;1750353;81;28209;-95
2022/04/04 08:37:50;;;;;;;11.22;6.22;;;;;;;20.08;49.62;98540.88;1750231;81;25697;-93
2022/04/04 08:40:18;;;;;;;11.35;6.78;;;;;;;20.11;49.55;98539.31;1748699;81;25748;-95
2022/04/04 08:42:46;;;;;;;12.20;6.87;;;;;;;20.14;49.52;98531.59;1747297;82;25757;-96
2022/04/04 08:45:13;;;;;;;12.28;7.00;;;;;;;20.16;49.47;98531.44;1747982;81;25184;-93
2022/04/04 08:47:41;;;;;;;11.22;7.20;;;;;;;20.21;49.46;98530.87;1746726;82;27611;-94
2022/04/04 08:50:10;;;;;;;11.00;6.78;;;;;;;20.21;49.39;98520.56;1747644;82;25547;-95
2022/04/04 08:52:37;;;;;;;10.70;7.17;;;;;;;20.23;49.41;98525.13;1747635;81;25419;-93
2022/04/04 08:55:04;;;;;;;12.13;7.35;;;;;;;20.24;49.33;98522.58;1747227;82;25699;-95
2022/04/04 08:57:32;;;;;;;10.90;6.97;;;;;;;20.25;49.28;98516.41;1748429;82;25585;-94
2022/04/04 08:59:58;;;;;;;11.95;7.00;;;;;;;20.26;49.28;98520.19;1747868;82;27526;-93
2022/04/04 09:02:25;;;;;;;12.00;7.70;;;;;;;20.27;49.22;98518.22;1747553;82;25452;-92
2022/04/04 09:04:52;;;;;;;11.80;7.20;;;;;;;20.29;49.20;98516.64;1747838;82;25677;-91
2022/04/04 09:07:20;;;;;;;12.28;7.60;;;;;;;20.31;49.19;98514.87;1747948;82;25859;-90
2022/04/04 09:09:50;;;;;;;11.73;7.40;;;;;;;20.32;49.11;98509.50;1747678;82;25417;-92
2022/04/04 09:12:24;;;;;;;13.80;7.90;;;;;;;20.33;49.08;98503.36;1747213;82;28112;-92
2022/04/04 09:14:57;;;;;;;11.88;6.78;;;;;;;20.34;49.02;98504.95;1747558;82;25664;-92
2022/04/04 09:17:30;;;;;;;13.22;7.25;;;;;;;20.35;48.99;98504.56;1747244;81;25712;-92
2022/04/04 09:19:58;;;;;;;11.48;7.15;;;;;;;20.34;48.98;98500.19;1747784;81;25697;-91
2022/04/04 09:22:25;;;;;;;12.65;7.42;;;;;;;20.36;48.90;98492.85;1747507;81;25633;-90
2022/04/04 09:24:58;;;;;;;11.33;7.33;;;;;;;20.36;48.86;98488.68;1747551;82;27469;-90
2022/04/04 09:27:31;;;;;;;14.13;7.97;;;;;;;20.36;48.85;98481.14;1747659;82;25660;-91
2022/04/04 09:30:00;;;;;;;12.88;7.75;;;;;;;20.36;48.76;98480.33;1747723;80;25432;-90
2022/04/04 09:32:46;;;;;;;12.97;7.67;;;;;;;20.37;48.77;98484.70;1760825;78;25767;-91
2022/04/04 09:35:20;;;;;;;12.88;7.53;;;;;;;20.38;48.67;98477.97;1764860;81;25612;-89
2022/04/04 09:37:50;;;;;;;10.45;7.10;;;;;;;20.37;48.66;98470.20;1765698;81;27492;-90
2022/04/04 09:40:29;;;;;;;12.63;7.42;;;;;;;20.38;48.66;98470.41;1765929;81;25728;-90
2022/04/04 09:42:58;;;;;;;11.38;6.95;;;;;;;20.38;48.60;98464.06;1764247;79;25443;-91
2022/04/04 09:45:29;;;;;;;13.00;7.30;;;;;;;20.37;48.60;98466.03;1766053;81;25691;-89
2022/04/04 09:47:59;;;;;;;12.23;7.35;;;;;;;20.38;48.61;98455.09;1766239;81;25650;-82
2022/04/04 09:50:45;;;;;;;12.33;7.53;;;;;;;20.39;48.53;98455.33;1766242;81;28043;-84
2022/04/04 09:53:16;;;;;;;12.03;7.05;;;;;;;20.40;48.50;98444.39;1766072;81;25739;-85
2022/04/04 09:55:55;;;;;;;13.45;7.40;;;;;;;20.39;48.54;98444.78;1766096;81;25661;-85
2022/04/04 09:58:24;;;;;;;13.38;7.65;;;;;;;20.38;48.58;98440.41;1765731;81;25688;-84
2022/04/04 10:00:50;;;;;;;11.78;7.35;;;;;;;20.39;48.61;98436.43;1766303;81;25474;-84
2022/04/04 10:03:19;;;;;;;12.00;7.50;;;;;;;20.37;48.66;98440.98;1766013;81;27560;-84
2022/04/04 10:05:56;;;;;;;11.50;7.58;;;;;;;20.39;48.70;98441.99;1765951;81;25685;-84
2022/04/04 10:08:25;;;;;;;11.05;7.00;;;;;;;20.40;48.70;98431.06;1766283;81;25442;-84
2022/04/04 10:10:54;;;;;;;11.97;7.70;;;;;;;20.40;48.71;98433.26;1766034;81;26364;-84
2022/04/04 10:13:23;;;;;;;11.38;7.20;;;;;;;20.41;48.67;98417.38;1766001;81;25604;-84
2022/04/04 10:15:53;;;;;;;12.35;7.10;;;;;;;20.42;48.65;98422.55;1765731;81;27477;-83
2022/04/04 10:18:20;;;;;;;11.00;7.10;;;;;;;20.42;48.60;98405.85;1766177;81;25643;-85
2022/04/04 10:20:53;;;;;;;10.85;7.00;;;;;;;20.42;48.57;98404.46;1766028;81;25541;-85
2022/04/04 10:23:22;;;;;;;12.55;7.37;;;;;;;20.42;48.52;98416.98;1765809;81;26011;-85
2022/04/04 10:25:53;;;;;;;11.97;7.20;;;;;;;20.41;48.50;98405.63;1766096;81;26309;-85
2022/04/04 10:28:32;;;;;;;13.18;7.78;;;;;;;20.41;48.48;98402.84;1766002;81;28412;-85
2022/04/04 10:31:21;;;;;;;12.17;7.97;;;;;;;20.42;48.43;98392.52;1765114;81;25980;-85
2022/04/04 10:33:53;;;;;;;12.88;7.15;;;;;;;20.40;48.45;98395.69;1759520;81;25697;-86
2022/04/04 10:36:24;;;;;;;11.38;7.22;;;;;;;20.40;48.49;98389.31;1762624;81;25944;-86
2022/04/04 10:38:54;;;;;;;11.63;7.20;;;;;;;20.39;48.45;98387.14;1762197;81;25515;-86
2022/04/04 10:41:27;;;;;;;13.58;7.08;;;;;;;20.39;48.40;98385.75;1762892;81;27604;-86
2022/04/04 10:43:55;;;;;;;12.80;7.17;;;;;;;20.38;48.39;98382.75;1762610;81;25688;-86
2022/04/04 10:46:29;;;;;;;11.53;6.78;;;;;;;20.38;48.44;98369.45;1762712;81;25717;-85
2022/04/04 10:48:57;;;;;;;11.90;7.00;;;;;;;20.37;48.39;98361.68;1760954;81;25652;-85
2022/04/04 10:51:31;;;;;;;11.53;6.97;;;;;;;20.36;48.43;98354.53;1759710;81;25693;-85
2022/04/04 10:54:10;;;;;;;12.70;7.10;;;;;;;20.34;48.50;98351.33;1762844;81;27322;-85
2022/04/04 10:56:46;;;;;;;10.40;7.00;;;;;;;20.34;48.44;98356.89;1762717;81;25608;-85
2022/04/04 10:59:25;;;;;;;10.50;6.95;;;;;;;20.33;48.38;98347.53;1762279;81;25617;-85
2022/04/04 11:01:56;;;;;;;10.88;6.70;;;;;;;20.33;48.38;98342.78;1762726;81;25802;-85
2022/04/04 11:04:34;;;;;;;12.28;6.80;;;;;;;20.33;48.43;98346.14;1761619;81;25645;-85
2022/04/04 11:10:11;;;;;;;12.33;6.42;;;;;;;20.28;48.44;98331.42;1762525;81;25679;-85
2022/04/04 11:12:51;;;;;;;9.83;6.17;;;;;;;20.27;48.49;98337.38;1758989;81;25597;-85
2022/04/04 11:15:17;;;;;;;11.12;6.45;;;;;;;20.26;48.47;98330.22;1762607;81;25770;-85
2022/04/04 11:18:00;;;;;;;10.53;6.58;;;;;;;20.23;48.44;98315.70;1762427;81;25624;-86
2022/04/04 11:20:33;;;;;;;11.08;6.40;;;;;;;20.22;48.46;98314.08;1762403;81;25918;-85
2022/04/04 11:23:10;;;;;;;11.33;6.22;;;;;;;20.19;48.39;98314.27;1762340;81;25656;-85
2022/04/04 11:25:55;;;;;;;10.20;6.45;;;;;;;20.18;48.44;98311.30;1762472;81;25614;-85
2022/04/04 11:28:25;;;;;;;12.10;6.90;;;;;;;20.17;48.50;98316.05;1760207;79;26479;-86
2022/04/04 11:30:57;;;;;;;10.72;6.37;;;;;;;20.17;48.44;98297.16;1762139;81;25660;-85
2022/04/04 11:33:23;;;;;;;9.85;6.22;;;;;;;20.16;48.33;98291.40;1760815;81;28214;-85
2022/04/04 11:35:54;;;;;;;10.72;7.08;;;;;;;20.16;48.29;98292.20;1762544;81;25736;-85
2022/04/04 11:38:22;;;;;;;11.08;6.47;;;;;;;20.16;48.19;98294.98;1762575;81;25668;-85
2022/04/04 11:40:56;;;;;;;11.50;6.12;;;;;;;20.15;48.11;98281.47;1762337;81;25790;-85
2022/04/04 11:43:24;;;;;;;9.73;6.22;;;;;;;20.13;48.08;98276.88;1762584;81;25649;-87